Vintondale, PA (15961)

2:58 PM EDT on September 17, 2014 (GMT -0400)
Chickaree Summit | Change Station
CLOSE
Current Station
Personal Weather Station
Location: Johnstown, PA
Elevation: 1759 ft
Nearby Weather Stations

Elev 1759 ft 40.42 °N, 78.87 °W | Updated 8 seconds ago

Partly Cloudy
Partly Cloudy
66.6 °F
Feels Like 66.6 °F
N
0.0
Wind Variable Wind from NW
Gusts 2.0 mph

Today
High -- | Low -- °F
--% Chance of Precip.
Yesterday
High -- | Low -- °F
Precip. -- in
6:58 AM 7:21 PM
Waning Crescent, 34% visible
Pressure 30.04 in
Visibility 10.0 miles
Clouds Overcast 4100 ft
Dew Point 54 °F
Humidity 63%
Rainfall 0.00 in
Snow Depth Not available.
UV 2 out of 12
Pollen 3.40 out of 12
Ozone Good
PM2.5 Moderate
Flu Activity Not available.
METAR KJST 171654Z AUTO 25008KT 10SM OVC041 17/07 A3004 RMK AO2 SLP171 T01670067

More Conditions Fewer Conditions

Pressure 30.04 in
Visibility 10.0 miles
Clouds Overcast 4100 ft
Dew Point 54 °F
Humidity 63%
Rainfall 0.00 in
Snow Depth Not available.
UV 2 out of 12
Pollen 3.40 out of 12
Ozone Good
PM2.5 Moderate
Flu Activity Not available.
METAR KJST 171654Z AUTO 25008KT 10SM OVC041 17/07 A3004 RMK AO2 SLP171 T01670067

More Conditions Fewer Conditions

10-Day Weather Forecast

Almanac

Astronomy

Sep. 17, 2014 Rise Set
Actual Time 6:58 AM EDT 7:21 PM EDT
Civil Twilight 6:30 AM EDT 7:48 PM EDT
Nautical Twilight 5:58 AM EDT 8:20 PM EDT
Astronomical Twilight 5:25 AM EDT 8:53 PM EDT
Moon 12:55 AM EDT 3:30 PM EDT
Length of Visible Light 13h 17m
Length of Day
12h 22m
Tomorrow will be 2m 39s shorter.
Waning Crescent, 34% of the Moon is Illuminated
Today
Waning Crescent
Sep 24
New
Oct 1
First Quarter
Oct 8
Full
Oct 15
Last Quarter

Today's Extremes

State Highs State Lows

Community

WunderPhotos

Upload Photos

1,754,127 photos uploaded!

WunderBlogs® & News

Nearby

Air Quality

  Air Quality AQ Index Pollutant
Yesterday Moderate
PM2.5
Yesterday Good
OZONE
Current Moderate
PM2.5
Current Good
OZONE
Wednesday Good
PM2.5
Thursday Good
PM2.5

Snow Depth

Station Depth Elevation
No new snow has been reported.

Earthquake Activity

City Distance Mag. Time & Date
No recent earthquake activity has been reported nearby.
Minimum magnitude displayed is 2.5.

Coastal Water Temperatures

Place Temperature
No Stations Reporting

Nearby Weather Stations